Time;durP1;ratioP1;P1;durP2;ratioP2;P2;SDS_P1;SDS_P2;PMS_P1;PMS_P2;Temp;Humidity;BMP_temperature;BMP_pressure;BME280_temperature;BME280_humidity;BME280_pressure;Samples;Min_cycle;Max_cycle;Signal;HPM_P1;HPM_P2
2022/08/27 00:01:57;;;;;;;;;;;26.30;57.30;;;;;;5093475;28;19998;-67
2022/08/27 00:04:22;;;;;;;;;;;26.30;57.60;;;;;;5093618;28;19916;-69
2022/08/27 00:06:48;;;;;;;;;;;26.30;57.90;;;;;;5093803;28;19954;-72
2022/08/27 00:09:13;;;;;;;;;;;26.40;57.90;;;;;;5093737;28;20363;-71
2022/08/27 00:11:39;;;;;;;;;;;26.40;58.10;;;;;;5093763;28;20356;-71
2022/08/27 00:14:05;;;;;;;;;;;26.30;58.40;;;;;;5093626;28;20352;-71
2022/08/27 00:16:31;;;;;;;;;;;26.40;58.40;;;;;;5093449;28;19970;-73
2022/08/27 00:18:57;;;;;;;;;;;26.40;58.60;;;;;;5093392;28;19961;-70
2022/08/27 00:21:22;;;;;;;;;;;26.40;58.80;;;;;;5093730;28;19916;-69
2022/08/27 00:23:48;;;;;;;;;;;26.30;58.90;;;;;;5093239;28;19955;-69
2022/08/27 00:26:14;;;;;;;;;;;26.40;59.20;;;;;;5093396;28;20394;-73
2022/08/27 00:28:40;;;;;;;;;;;26.30;59.10;;;;;;5093511;28;19914;-72
2022/08/27 00:31:06;;;;;;;;;;;26.30;59.40;;;;;;5093194;28;20049;-70
2022/08/27 00:33:32;;;;;;;;;;;26.30;59.30;;;;;;5093466;28;19912;-68
2022/08/27 00:35:57;;;;;;;;;;;26.30;59.20;;;;;;5093401;28;19908;-68
2022/08/27 00:38:23;;;;;;;;;;;26.40;59.10;;;;;;5093247;28;19959;-67
2022/08/27 00:40:49;;;;;;;;;;;26.40;59.70;;;;;;5093172;28;19908;-67
2022/08/27 00:43:25;;;;;;;;;;;26.40;59.00;;;;;;5093178;28;20110;-71
2022/08/27 00:45:53;;;;;;;;;;;26.40;58.90;;;;;;5093890;28;19931;-72
2022/08/27 00:48:20;;;;;;;;;;;26.40;59.10;;;;;;5093277;28;19908;-71
2022/08/27 00:50:49;;;;;;;;;;;26.40;59.30;;;;;;5093113;28;19912;-70
2022/08/27 00:53:16;;;;;;;;;;;26.30;59.30;;;;;;5093202;28;19993;-74
2022/08/27 00:55:44;;;;;;;;;;;26.40;59.30;;;;;;5093122;28;20277;-67
2022/08/27 00:58:14;;;;;;;;;;;26.40;59.10;;;;;;5093314;28;19915;-71
2022/08/27 01:00:42;;;;;;;;;;;26.40;59.30;;;;;;5093149;28;20011;-70
2022/08/27 01:03:08;;;;;;;;;;;26.40;59.30;;;;;;5093329;28;19908;-68
2022/08/27 01:05:34;;;;;;;;;;;26.50;59.40;;;;;;5093097;28;19958;-72
2022/08/27 01:08:05;;;;;;;;;;;26.40;59.50;;;;;;5093278;28;19908;-70
2022/08/27 01:10:31;;;;;;;;;;;26.40;59.50;;;;;;5093133;28;19953;-70
2022/08/27 01:12:57;;;;;;;;;;;26.40;59.60;;;;;;5094832;28;20030;-69
2022/08/27 01:15:24;;;;;;;;;;;26.40;59.50;;;;;;5097031;28;20007;-67
2022/08/27 01:17:50;;;;;;;;;;;26.40;59.80;;;;;;5096915;28;19922;-71
2022/08/27 01:20:21;;;;;;;;;;;26.40;59.70;;;;;;5095673;28;19912;-73
2022/08/27 01:23:08;;;;;;;;;;;26.30;60.10;;;;;;5097047;28;19999;-73
2022/08/27 01:25:34;;;;;;;;;;;26.30;60.10;;;;;;5096710;28;19916;-71
2022/08/27 01:28:02;;;;;;;;;;;26.30;60.30;;;;;;5096956;28;19908;-71
2022/08/27 01:30:28;;;;;;;;;;;26.30;60.40;;;;;;5096425;28;19908;-67
2022/08/27 01:32:53;;;;;;;;;;;26.30;60.40;;;;;;5096936;28;19908;-71
2022/08/27 01:35:20;;;;;;;;;;;26.30;60.50;;;;;;5096457;28;20271;-72
2022/08/27 01:37:48;;;;;;;;;;;26.30;60.40;;;;;;5096396;28;19908;-70
2022/08/27 01:40:13;;;;;;;;;;;26.30;60.60;;;;;;5095137;28;20012;-70
2022/08/27 01:42:41;;;;;;;;;;;26.30;60.80;;;;;;5096285;28;20010;-69
2022/08/27 01:45:09;;;;;;;;;;;26.30;60.60;;;;;;5095111;28;19923;-71
2022/08/27 01:47:35;;;;;;;;;;;26.30;60.90;;;;;;5096972;28;20365;-69
2022/08/27 01:50:04;;;;;;;;;;;26.20;60.90;;;;;;5096239;28;20006;-72
2022/08/27 01:52:30;;;;;;;;;;;26.30;60.90;;;;;;5096174;28;19908;-71
2022/08/27 01:54:55;;;;;;;;;;;26.30;60.80;;;;;;5096609;28;20008;-70
2022/08/27 01:57:21;;;;;;;;;;;26.30;60.90;;;;;;5096572;28;19961;-71
2022/08/27 01:59:46;;;;;;;;;;;26.20;60.90;;;;;;5096444;28;19957;-69
2022/08/27 02:02:15;;;;;;;;;;;26.20;60.90;;;;;;5096156;28;20359;-67
2022/08/27 02:04:40;;;;;;;;;;;26.20;61.10;;;;;;5096083;28;19916;-70
2022/08/27 02:07:06;;;;;;;;;;;26.20;61.00;;;;;;5096219;28;19908;-71
2022/08/27 02:09:32;;;;;;;;;;;26.10;61.20;;;;;;5095774;28;19915;-69
2022/08/27 02:11:59;;;;;;;;;;;26.20;61.20;;;;;;5095690;28;19951;-66
2022/08/27 02:14:25;;;;;;;;;;;26.20;61.20;;;;;;5096277;28;19908;-72
2022/08/27 02:16:51;;;;;;;;;;;26.20;61.20;;;;;;5095930;28;19948;-69
2022/08/27 02:19:17;;;;;;;;;;;26.10;61.50;;;;;;5095723;28;19928;-71
2022/08/27 02:21:42;;;;;;;;;;;26.00;61.50;;;;;;5095745;28;19938;-67
2022/08/27 02:24:08;;;;;;;;;;;26.10;61.40;;;;;;5095380;28;19916;-72
2022/08/27 02:26:33;;;;;;;;;;;26.10;61.60;;;;;;5095616;28;20271;-71
2022/08/27 02:28:59;;;;;;;;;;;26.20;61.50;;;;;;5095297;28;19931;-71
2022/08/27 02:31:25;;;;;;;;;;;26.10;61.70;;;;;;5095624;28;19908;-71
2022/08/27 02:33:51;;;;;;;;;;;26.10;61.60;;;;;;5095384;28;19908;-73
2022/08/27 02:36:16;;;;;;;;;;;26.10;61.20;;;;;;5095324;28;19908;-69
2022/08/27 02:38:42;;;;;;;;;;;26.20;62.10;;;;;;5095210;28;19919;-67
2022/08/27 02:41:08;;;;;;;;;;;26.20;61.40;;;;;;5095258;28;19987;-72
2022/08/27 02:43:34;;;;;;;;;;;26.20;61.20;;;;;;5095472;28;19967;-71
2022/08/27 02:46:00;;;;;;;;;;;26.20;61.30;;;;;;5095278;28;19914;-70
2022/08/27 02:48:26;;;;;;;;;;;26.20;61.10;;;;;;5095290;28;19969;-70
2022/08/27 02:50:52;;;;;;;;;;;26.20;61.00;;;;;;5094959;28;20003;-69
2022/08/27 02:53:17;;;;;;;;;;;26.10;61.10;;;;;;5095138;28;19959;-66
2022/08/27 02:55:43;;;;;;;;;;;26.20;61.20;;;;;;5094947;28;19915;-67
2022/08/27 02:58:09;;;;;;;;;;;26.10;61.40;;;;;;5095158;28;19943;-69
2022/08/27 03:00:34;;;;;;;;;;;26.10;61.40;;;;;;5094751;28;20264;-73
2022/08/27 03:03:01;;;;;;;;;;;26.10;61.10;;;;;;5094907;28;19908;-72
2022/08/27 03:05:27;;;;;;;;;;;26.10;61.50;;;;;;5094599;28;19920;-72
2022/08/27 03:07:53;;;;;;;;;;;26.10;61.20;;;;;;5094793;28;19913;-69
2022/08/27 03:10:19;;;;;;;;;;;26.10;61.40;;;;;;5094582;28;20041;-67
2022/08/27 03:12:45;;;;;;;;;;;26.10;61.30;;;;;;5094614;28;20366;-71
2022/08/27 03:15:11;;;;;;;;;;;26.10;61.20;;;;;;5094750;28;20008;-73
2022/08/27 03:20:22;;;;;;;;;;;26.00;61.60;;;;;;5094570;28;19919;-72
2022/08/27 03:22:47;;;;;;;;;;;26.00;61.60;;;;;;5094437;28;19915;-67
2022/08/27 03:25:13;;;;;;;;;;;25.90;61.90;;;;;;5094301;28;19916;-70
2022/08/27 03:27:39;;;;;;;;;;;25.90;62.00;;;;;;5094539;28;19943;-70
2022/08/27 03:30:07;;;;;;;;;;;26.00;62.10;;;;;;5094286;28;19937;-71
2022/08/27 03:32:33;;;;;;;;;;;26.00;61.90;;;;;;5093060;28;19912;-67
2022/08/27 03:34:59;;;;;;;;;;;25.90;61.90;;;;;;5093640;28;19908;-71
2022/08/27 03:37:24;;;;;;;;;;;26.00;62.10;;;;;;5094407;28;19914;-68
2022/08/27 03:39:50;;;;;;;;;;;25.90;62.10;;;;;;5094132;28;20265;-71
2022/08/27 03:42:16;;;;;;;;;;;25.90;62.20;;;;;;5094103;28;19947;-70
2022/08/27 03:44:42;;;;;;;;;;;25.90;62.30;;;;;;5094240;28;19927;-66
2022/08/27 03:47:08;;;;;;;;;;;25.90;62.60;;;;;;5093955;28;19908;-66
2022/08/27 03:49:33;;;;;;;;;;;25.90;62.50;;;;;;5093899;28;19908;-68
2022/08/27 03:51:59;;;;;;;;;;;26.00;62.70;;;;;;5093991;28;19912;-71
2022/08/27 03:54:24;;;;;;;;;;;26.00;62.60;;;;;;5093840;28;19912;-73
2022/08/27 03:56:50;;;;;;;;;;;26.00;62.50;;;;;;5094252;28;19908;-73
2022/08/27 03:59:16;;;;;;;;;;;26.00;62.60;;;;;;5093804;28;19969;-72
2022/08/27 04:01:42;;;;;;;;;;;26.00;62.90;;;;;;5094140;28;19912;-71
2022/08/27 04:04:07;;;;;;;;;;;26.00;62.80;;;;;;5093665;28;19922;-65
2022/08/27 04:06:34;;;;;;;;;;;26.00;62.60;;;;;;5093712;28;19908;-72
2022/08/27 04:08:59;;;;;;;;;;;26.00;62.70;;;;;;5093759;28;19908;-71
2022/08/27 04:11:25;;;;;;;;;;;26.00;62.70;;;;;;5094072;28;19915;-71
2022/08/27 04:13:50;;;;;;;;;;;26.00;62.80;;;;;;5093758;28;19909;-71
2022/08/27 04:16:16;;;;;;;;;;;26.00;62.80;;;;;;5093797;28;19915;-73
2022/08/27 04:18:41;;;;;;;;;;;26.00;63.00;;;;;;5093462;28;19931;-73
2022/08/27 04:21:09;;;;;;;;;;;26.00;63.10;;;;;;5093481;28;19909;-71
2022/08/27 04:23:36;;;;;;;;;;;25.90;63.30;;;;;;5093538;28;19918;-71
2022/08/27 04:26:04;;;;;;;;;;;25.90;63.50;;;;;;5093628;28;20402;-71
2022/08/27 04:28:31;;;;;;;;;;;25.90;63.50;;;;;;5093858;28;19908;-73
2022/08/27 04:30:56;;;;;;;;;;;25.90;63.50;;;;;;5093691;28;19908;-73
2022/08/27 04:33:22;;;;;;;;;;;25.90;63.60;;;;;;5094024;28;19912;-73
2022/08/27 04:35:55;;;;;;;;;;;25.90;63.50;;;;;;5093592;28;19977;-70
2022/08/27 04:38:21;;;;;;;;;;;25.90;63.60;;;;;;5093838;28;20240;-74
2022/08/27 04:43:30;;;;;;;;;;;26.00;63.40;;;;;;5093613;28;19942;-74
2022/08/27 04:45:56;;;;;;;;;;;25.90;63.60;;;;;;5093776;28;20379;-74
2022/08/27 04:48:21;;;;;;;;;;;25.90;63.60;;;;;;5097540;28;19995;-71
2022/08/27 04:50:47;;;;;;;;;;;25.90;63.40;;;;;;5097606;28;19977;-73
2022/08/27 04:53:13;;;;;;;;;;;26.00;63.60;;;;;;5097599;28;19912;-68
2022/08/27 04:55:40;;;;;;;;;;;26.00;63.50;;;;;;5097682;28;19953;-70
2022/08/27 04:58:05;;;;;;;;;;;26.00;63.70;;;;;;5097676;28;19908;-70
2022/08/27 05:00:32;;;;;;;;;;;26.00;63.60;;;;;;5097395;28;20236;-68
2022/08/27 05:02:57;;;;;;;;;;;26.00;63.40;;;;;;5097227;28;19915;-73
2022/08/27 05:05:25;;;;;;;;;;;26.00;63.40;;;;;;5097345;28;19916;-71
2022/08/27 05:07:51;;;;;;;;;;;25.90;63.60;;;;;;5097548;28;19909;-70
2022/08/27 05:10:16;;;;;;;;;;;25.90;63.90;;;;;;5097545;28;19915;-64
2022/08/27 05:12:42;;;;;;;;;;;25.90;63.90;;;;;;5097458;28;19913;-73
2022/08/27 05:15:08;;;;;;;;;;;26.00;63.80;;;;;;5097261;28;20363;-72
2022/08/27 05:17:33;;;;;;;;;;;26.00;63.90;;;;;;5097079;28;19912;-73
2022/08/27 05:19:59;;;;;;;;;;;26.00;63.80;;;;;;5096919;28;19991;-73
2022/08/27 05:22:26;;;;;;;;;;;26.00;63.80;;;;;;5097389;28;19908;-72
2022/08/27 05:24:52;;;;;;;;;;;26.10;63.40;;;;;;5097235;28;20408;-73
2022/08/27 05:27:17;;;;;;;;;;;26.10;63.30;;;;;;5097076;28;19908;-74
2022/08/27 05:29:43;;;;;;;;;;;26.10;63.40;;;;;;5096621;28;19974;-71
2022/08/27 05:32:08;;;;;;;;;;;26.10;63.50;;;;;;5096914;28;19950;-72
2022/08/27 05:34:34;;;;;;;;;;;26.20;63.50;;;;;;5096749;28;19931;-72
2022/08/27 05:37:00;;;;;;;;;;;26.20;63.50;;;;;;5096905;28;19908;-70
2022/08/27 05:39:25;;;;;;;;;;;26.10;63.30;;;;;;5096531;28;20324;-70
2022/08/27 05:41:55;;;;;;;;;;;26.20;63.50;;;;;;5096600;28;19914;-69
2022/08/27 05:44:20;;;;;;;;;;;26.20;63.40;;;;;;5096430;28;20249;-70
2022/08/27 05:46:46;;;;;;;;;;;26.20;63.40;;;;;;5096482;28;19953;-71
2022/08/27 05:49:11;;;;;;;;;;;26.30;63.20;;;;;;5096641;28;20015;-72
2022/08/27 05:51:37;;;;;;;;;;;26.30;63.50;;;;;;5096432;28;20002;-72
2022/08/27 05:54:05;;;;;;;;;;;26.30;63.60;;;;;;5096534;28;19916;-69
2022/08/27 05:56:32;;;;;;;;;;;26.40;63.40;;;;;;5096829;28;19912;-73
2022/08/27 06:01:44;;;;;;;;;;;26.50;63.00;;;;;;5096785;28;19919;-72
2022/08/27 06:04:10;;;;;;;;;;;26.40;63.30;;;;;;5096320;28;19916;-73
2022/08/27 06:06:36;;;;;;;;;;;26.50;63.50;;;;;;5096625;28;20248;-71
2022/08/27 06:09:02;;;;;;;;;;;26.70;63.30;;;;;;5096498;28;20367;-71
2022/08/27 06:11:28;;;;;;;;;;;27.00;62.30;;;;;;5097669;28;19952;-73
2022/08/27 06:13:54;;;;;;;;;;;27.20;61.40;;;;;;5096893;28;19931;-72
2022/08/27 06:16:19;;;;;;;;;;;27.30;61.30;;;;;;5096076;28;20348;-73
2022/08/27 06:18:46;;;;;;;;;;;27.40;60.90;;;;;;5095819;28;19941;-72
2022/08/27 06:21:12;;;;;;;;;;;27.50;60.20;;;;;;5095939;28;19949;-72
2022/08/27 06:23:38;;;;;;;;;;;27.70;59.90;;;;;;5095598;28;20052;-71
2022/08/27 06:26:11;;;;;;;;;;;27.80;60.00;;;;;;5095942;28;20382;-73
2022/08/27 06:28:39;;;;;;;;;;;27.80;59.70;;;;;;5095629;28;20016;-71
2022/08/27 06:31:06;;;;;;;;;;;27.90;59.20;;;;;;5095797;28;19954;-72
2022/08/27 06:33:33;;;;;;;;;;;28.00;59.60;;;;;;5095796;28;19908;-70
2022/08/27 06:36:03;;;;;;;;;;;28.20;59.10;;;;;;5095744;28;19920;-73
2022/08/27 06:38:28;;;;;;;;;;;28.30;58.80;;;;;;5095574;28;19922;-72
2022/08/27 06:40:55;;;;;;;;;;;28.30;58.70;;;;;;5095155;28;19974;-73
2022/08/27 06:43:21;;;;;;;;;;;28.30;58.70;;;;;;5095514;28;19908;-68
2022/08/27 06:45:47;;;;;;;;;;;28.50;58.50;;;;;;5095345;28;19912;-72
2022/08/27 06:48:12;;;;;;;;;;;28.50;58.50;;;;;;5095423;28;19912;-73
2022/08/27 06:50:38;;;;;;;;;;;28.70;57.90;;;;;;5095129;28;19962;-71
2022/08/27 06:53:04;;;;;;;;;;;28.70;58.10;;;;;;5095289;28;19961;-71
2022/08/27 06:55:29;;;;;;;;;;;28.90;57.60;;;;;;5095004;28;20310;-73
2022/08/27 06:57:55;;;;;;;;;;;28.90;57.40;;;;;;5095072;28;20381;-72
2022/08/27 07:00:21;;;;;;;;;;;29.10;57.50;;;;;;5095015;28;20378;-69
2022/08/27 07:02:46;;;;;;;;;;;29.10;56.80;;;;;;5093966;28;19908;-69
2022/08/27 07:05:12;;;;;;;;;;;29.20;57.20;;;;;;5094904;28;20398;-71
2022/08/27 07:07:37;;;;;;;;;;;29.30;57.00;;;;;;5095134;28;19961;-72
2022/08/27 07:10:03;;;;;;;;;;;29.50;56.60;;;;;;5093695;28;19921;-73
2022/08/27 07:12:29;;;;;;;;;;;29.60;56.10;;;;;;5094869;28;19908;-71
2022/08/27 07:14:54;;;;;;;;;;;29.80;56.70;;;;;;5094998;28;19915;-67
2022/08/27 07:17:20;;;;;;;;;;;29.80;56.10;;;;;;5094718;28;19908;-71
2022/08/27 07:19:46;;;;;;;;;;;29.90;55.70;;;;;;5094590;28;19916;-69
2022/08/27 07:22:12;;;;;;;;;;;29.90;55.70;;;;;;5094861;28;19912;-70
2022/08/27 07:24:38;;;;;;;;;;;30.00;55.50;;;;;;5094413;28;19923;-73
2022/08/27 07:27:04;;;;;;;;;;;30.20;54.90;;;;;;5094536;28;19908;-72
2022/08/27 07:29:31;;;;;;;;;;;30.40;55.20;;;;;;5094593;28;19917;-72
2022/08/27 07:31:57;;;;;;;;;;;30.50;54.50;;;;;;5094686;28;19961;-71
2022/08/27 07:34:23;;;;;;;;;;;30.60;54.50;;;;;;5094473;28;20003;-73
2022/08/27 07:36:50;;;;;;;;;;;30.80;53.60;;;;;;5094595;28;20328;-72
2022/08/27 07:39:16;;;;;;;;;;;30.90;54.20;;;;;;5094262;28;19914;-72
2022/08/27 07:44:26;;;;;;;;;;;31.10;53.00;;;;;;5094250;28;20421;-70
2022/08/27 07:46:56;;;;;;;;;;;31.00;52.60;;;;;;5094499;28;19931;-71
2022/08/27 07:49:22;;;;;;;;;;;31.00;52.40;;;;;;5094367;28;20283;-73
2022/08/27 07:51:48;;;;;;;;;;;30.80;52.40;;;;;;5094291;28;19907;-72
2022/08/27 07:54:14;;;;;;;;;;;30.70;52.80;;;;;;5093874;28;20308;-72
2022/08/27 07:56:39;;;;;;;;;;;30.60;53.40;;;;;;5092739;28;19999;-71
2022/08/27 07:59:05;;;;;;;;;;;30.50;53.60;;;;;;5094172;28;19922;-73
2022/08/27 08:01:31;;;;;;;;;;;30.30;54.10;;;;;;5094133;28;19996;-68
2022/08/27 08:03:56;;;;;;;;;;;30.30;54.20;;;;;;5094096;28;19923;-68
2022/08/27 08:06:22;;;;;;;;;;;30.40;53.50;;;;;;5093827;28;20427;-72
2022/08/27 08:08:47;;;;;;;;;;;30.50;53.10;;;;;;5094084;28;19961;-72
2022/08/27 08:11:14;;;;;;;;;;;30.60;53.10;;;;;;5093906;28;19908;-72
2022/08/27 08:13:40;;;;;;;;;;;30.60;52.70;;;;;;5094072;28;19913;-71
2022/08/27 08:16:05;;;;;;;;;;;30.60;52.70;;;;;;5093782;28;19908;-72
2022/08/27 08:18:31;;;;;;;;;;;30.70;52.30;;;;;;5093687;28;19972;-67
2022/08/27 08:21:01;;;;;;;;;;;31.00;52.10;;;;;;5093177;28;19916;-73
2022/08/27 08:23:26;;;;;;;;;;;31.10;52.00;;;;;;5093585;28;19944;-68
2022/08/27 08:25:52;;;;;;;;;;;31.30;53.10;;;;;;5093998;28;19947;-73
2022/08/27 08:28:18;;;;;;;;;;;31.50;53.60;;;;;;5093957;28;20314;-72
2022/08/27 08:30:45;;;;;;;;;;;31.60;53.20;;;;;;5093505;28;19991;-71
2022/08/27 08:33:12;;;;;;;;;;;31.70;53.30;;;;;;5093665;28;19915;-72
2022/08/27 08:35:38;;;;;;;;;;;31.80;53.00;;;;;;5093634;28;20006;-72
2022/08/27 08:38:03;;;;;;;;;;;31.80;53.00;;;;;;5093645;28;19943;-73
2022/08/27 08:40:34;;;;;;;;;;;31.80;53.80;;;;;;5093584;28;19908;-74
2022/08/27 08:43:02;;;;;;;;;;;31.00;53.80;;;;;;5093629;28;19908;-71
2022/08/27 08:45:30;;;;;;;;;;;30.60;55.20;;;;;;5093486;28;19916;-73
2022/08/27 08:48:08;;;;;;;;;;;30.00;56.50;;;;;;5093525;28;20260;-70
2022/08/27 08:50:38;;;;;;;;;;;29.90;57.80;;;;;;5093670;28;19908;-73
2022/08/27 08:53:18;;;;;;;;;;;30.00;57.10;;;;;;5093322;28;19947;-73
2022/08/27 08:55:50;;;;;;;;;;;30.00;57.40;;;;;;5093867;28;20273;-72
2022/08/27 08:58:26;;;;;;;;;;;30.10;57.40;;;;;;5093193;28;19908;-69
2022/08/27 09:00:54;;;;;;;;;;;30.20;56.40;;;;;;5093365;28;20385;-67
2022/08/27 09:03:19;;;;;;;;;;;30.50;56.30;;;;;;5093431;28;19908;-72
2022/08/27 09:05:54;;;;;;;;;;;30.50;55.80;;;;;;5093241;28;20382;-72
2022/08/27 09:08:23;;;;;;;;;;;30.40;55.30;;;;;;5093339;28;20006;-72
2022/08/27 09:11:15;;;;;;;;;;;30.30;55.60;;;;;;5093417;28;19950;-72
2022/08/27 09:13:42;;;;;;;;;;;30.30;55.80;;;;;;5077186;28;19961;-74
2022/08/27 09:16:07;;;;;;;;;;;30.60;55.60;;;;;;5093328;28;19914;-71
2022/08/27 09:18:38;;;;;;;;;;;30.80;55.50;;;;;;5093060;28;20002;-73
2022/08/27 09:21:22;;;;;;;;;;;30.40;55.10;;;;;;5093466;28;19912;-74
2022/08/27 09:23:57;;;;;;;;;;;30.10;56.10;;;;;;5093413;28;19968;-74
2022/08/27 09:26:24;;;;;;;;;;;29.90;56.70;;;;;;5093560;28;20003;-71
2022/08/27 09:29:15;;;;;;;;;;;29.80;57.20;;;;;;5093484;28;19961;-71
2022/08/27 09:31:42;;;;;;;;;;;29.90;57.60;;;;;;5093159;28;19908;-69
2022/08/27 09:34:08;;;;;;;;;;;30.00;56.90;;;;;;5095170;28;19916;-72
2022/08/27 09:36:33;;;;;;;;;;;29.90;57.20;;;;;;5095687;28;19908;-71
2022/08/27 09:39:02;;;;;;;;;;;30.00;56.90;;;;;;5097377;28;19912;-72
2022/08/27 09:41:30;;;;;;;;;;;30.00;55.90;;;;;;5096814;28;20283;-73
2022/08/27 09:44:07;;;;;;;;;;;29.90;55.70;;;;;;5096578;28;20253;-68
2022/08/27 09:46:32;;;;;;;;;;;29.70;56.20;;;;;;5096598;28;19912;-71
2022/08/27 09:49:09;;;;;;;;;;;29.60;56.20;;;;;;5096821;28;20378;-73
2022/08/27 09:51:38;;;;;;;;;;;29.80;55.70;;;;;;5098196;28;19908;-70
2022/08/27 09:54:05;;;;;;;;;;;30.00;54.40;;;;;;5098436;28;19916;-74
2022/08/27 09:56:45;;;;;;;;;;;30.00;54.70;;;;;;5098721;28;19908;-70
2022/08/27 09:59:19;;;;;;;;;;;30.10;54.20;;;;;;5098787;28;20328;-71
2022/08/27 10:01:53;;;;;;;;;;;30.10;54.00;;;;;;5097307;28;19962;-73
2022/08/27 10:04:36;;;;;;;;;;;30.00;53.50;;;;;;5096421;28;19916;-71
2022/08/27 10:07:15;;;;;;;;;;;30.10;53.60;;;;;;5096221;28;19908;-73
2022/08/27 10:09:45;;;;;;;;;;;30.00;53.30;;;;;;5096219;28;19909;-71
2022/08/27 10:12:18;;;;;;;;;;;30.30;53.00;;;;;;5097623;28;19908;-69
2022/08/27 10:14:50;;;;;;;;;;;30.30;52.70;;;;;;5097178;28;20332;-73
2022/08/27 10:17:24;;;;;;;;;;;30.60;52.10;;;;;;5097366;28;19908;-71
2022/08/27 10:19:52;;;;;;;;;;;30.80;51.10;;;;;;5095956;28;19962;-73
2022/08/27 10:22:18;;;;;;;;;;;30.80;52.10;;;;;;5096186;28;19908;-69
2022/08/27 10:25:03;;;;;;;;;;;31.10;52.30;;;;;;5096075;28;19922;-71
2022/08/27 10:27:41;;;;;;;;;;;31.00;51.00;;;;;;5095736;28;20349;-72
2022/08/27 10:30:14;;;;;;;;;;;31.10;52.30;;;;;;5095570;28;20346;-70
2022/08/27 10:32:43;;;;;;;;;;;31.40;50.90;;;;;;5096196;28;19904;-68
2022/08/27 10:35:15;;;;;;;;;;;31.40;50.00;;;;;;5095717;28;19908;-72
2022/08/27 10:37:51;;;;;;;;;;;31.50;50.80;;;;;;5095487;28;19955;-70
2022/08/27 10:40:19;;;;;;;;;;;31.70;50.30;;;;;;5095381;28;20286;-71
2022/08/27 10:43:00;;;;;;;;;;;31.60;48.50;;;;;;5095530;28;19908;-74
2022/08/27 10:45:32;;;;;;;;;;;31.60;48.50;;;;;;5095208;28;19923;-71
2022/08/27 10:48:00;;;;;;;;;;;31.30;49.60;;;;;;5096022;28;20371;-73
2022/08/27 10:50:47;;;;;;;;;;;31.10;49.60;;;;;;5096276;28;19908;-69
2022/08/27 10:53:31;;;;;;;;;;;31.40;50.90;;;;;;5095457;28;19923;-66
2022/08/27 10:56:26;;;;;;;;;;;31.70;49.70;;;;;;5095749;28;19914;-70
2022/08/27 10:58:51;;;;;;;;;;;32.00;49.00;;;;;;5086220;28;20314;-69
2022/08/27 11:01:17;;;;;;;;;;;32.10;48.30;;;;;;5094593;28;19908;-72
2022/08/27 11:03:44;;;;;;;;;;;32.20;48.50;;;;;;5094807;28;19912;-72
2022/08/27 11:06:18;;;;;;;;;;;32.30;48.40;;;;;;5094775;28;19912;-71
2022/08/27 11:08:48;;;;;;;;;;;31.70;48.00;;;;;;5095048;28;19915;-71
2022/08/27 11:11:22;;;;;;;;;;;31.60;49.20;;;;;;5095383;28;20249;-73
2022/08/27 11:13:50;;;;;;;;;;;31.40;49.70;;;;;;5094562;28;20297;-71
2022/08/27 11:16:24;;;;;;;;;;;31.30;49.30;;;;;;5094822;28;19909;-68
2022/08/27 11:18:52;;;;;;;;;;;31.10;50.20;;;;;;5094407;28;19920;-71
2022/08/27 11:21:21;;;;;;;;;;;31.00;50.60;;;;;;5094620;28;19919;-66
2022/08/27 11:23:49;;;;;;;;;;;30.70;50.50;;;;;;5094483;28;20052;-69
2022/08/27 11:26:15;;;;;;;;;;;30.20;51.00;;;;;;5095613;28;19908;-68
2022/08/27 11:28:40;;;;;;;;;;;30.10;52.40;;;;;;5094142;28;19923;-74
2022/08/27 11:31:09;;;;;;;;;;;30.20;54.20;;;;;;5093824;28;19908;-72
2022/08/27 11:33:42;;;;;;;;;;;30.10;57.60;;;;;;5094834;28;19999;-72
2022/08/27 11:36:20;;;;;;;;;;;30.00;60.40;;;;;;5094696;28;20257;-71
2022/08/27 11:39:00;;;;;;;;;;;29.90;64.00;;;;;;5094438;28;20050;-74
2022/08/27 11:41:31;;;;;;;;;;;29.70;63.10;;;;;;5094388;28;19915;-74
2022/08/27 11:43:58;;;;;;;;;;;29.40;68.10;;;;;;5094381;28;20118;-72
2022/08/27 11:46:26;;;;;;;;;;;29.30;71.90;;;;;;5094367;28;19911;-70
2022/08/27 11:48:56;;;;;;;;;;;29.30;70.50;;;;;;5094377;28;19912;-68
2022/08/27 11:51:24;;;;;;;;;;;29.00;67.60;;;;;;5094409;28;19954;-67
2022/08/27 11:53:58;;;;;;;;;;;28.90;69.70;;;;;;5093753;28;20006;-73
2022/08/27 11:56:29;;;;;;;;;;;28.90;68.90;;;;;;5093905;28;19912;-67
2022/08/27 11:59:07;;;;;;;;;;;28.90;68.60;;;;;;5094028;28;20399;-69
2022/08/27 12:01:32;;;;;;;;;;;28.80;68.50;;;;;;5094464;28;19915;-68
2022/08/27 12:04:05;;;;;;;;;;;28.80;70.00;;;;;;5093885;28;19912;-70
2022/08/27 12:06:42;;;;;;;;;;;28.80;70.60;;;;;;5092816;28;19912;-71
2022/08/27 12:09:16;;;;;;;;;;;28.70;70.60;;;;;;5094043;28;19949;-67
2022/08/27 12:11:54;;;;;;;;;;;28.80;72.60;;;;;;5094063;28;19915;-66
2022/08/27 12:14:29;;;;;;;;;;;28.90;74.40;;;;;;5093643;28;20267;-70
2022/08/27 12:17:00;;;;;;;;;;;29.10;74.20;;;;;;5094118;28;20275;-66
2022/08/27 12:19:40;;;;;;;;;;;29.10;74.60;;;;;;5093562;28;19959;-66
2022/08/27 12:22:12;;;;;;;;;;;29.20;73.60;;;;;;5049139;28;19965;-63
2022/08/27 12:24:37;;;;;;;;;;;28.90;74.60;;;;;;5070465;28;19960;-63
2022/08/27 12:27:14;;;;;;;;;;;28.60;74.60;;;;;;5071233;28;20385;-66
2022/08/27 12:29:40;;;;;;;;;;;28.30;75.20;;;;;;5072100;28;19962;-70
2022/08/27 12:32:24;;;;;;;;;;;27.90;76.40;;;;;;5071081;28;20364;-71
2022/08/27 12:35:08;;;;;;;;;;;27.80;76.80;;;;;;5071114;28;20443;-72
2022/08/27 12:37:35;;;;;;;;;;;27.50;77.90;;;;;;5070606;28;19913;-68
2022/08/27 12:40:05;;;;;;;;;;;27.30;79.50;;;;;;5073843;28;19998;-70
2022/08/27 12:42:31;;;;;;;;;;;27.40;79.80;;;;;;5075511;28;19920;-68
2022/08/27 12:44:58;;;;;;;;;;;27.50;75.90;;;;;;5078858;28;19917;-68
2022/08/27 12:47:24;;;;;;;;;;;27.50;76.40;;;;;;5070816;28;20210;-72
2022/08/27 12:49:51;;;;;;;;;;;27.30;76.50;;;;;;5079159;28;19909;-70
2022/08/27 12:52:29;;;;;;;;;;;27.00;77.60;;;;;;5070342;28;19912;-69
2022/08/27 12:55:01;;;;;;;;;;;27.10;79.00;;;;;;5070701;28;20272;-73
2022/08/27 12:57:37;;;;;;;;;;;26.80;71.90;;;;;;5069184;28;19991;-69
2022/08/27 13:00:13;;;;;;;;;;;27.00;72.50;;;;;;5070779;28;19938;-67
2022/08/27 13:02:57;;;;;;;;;;;27.20;70.50;;;;;;5070873;28;19913;-76
2022/08/27 13:05:23;;;;;;;;;;;27.20;68.90;;;;;;5071629;28;20280;-65
2022/08/27 13:07:50;;;;;;;;;;;26.90;68.20;;;;;;5071302;28;20271;-66
2022/08/27 13:10:24;;;;;;;;;;;26.70;71.50;;;;;;5075539;28;19951;-68
2022/08/27 13:12:59;;;;;;;;;;;26.60;71.60;;;;;;5074121;28;20368;-66
2022/08/27 13:15:25;;;;;;;;;;;26.50;72.80;;;;;;5074235;28;19908;-68
2022/08/27 13:17:51;;;;;;;;;;;26.50;68.70;;;;;;5075113;28;19921;-67
2022/08/27 13:20:22;;;;;;;;;;;26.50;63.00;;;;;;5078506;28;19917;-70
2022/08/27 13:22:48;;;;;;;;;;;26.60;60.30;;;;;;5056044;28;19935;-72
2022/08/27 13:25:26;;;;;;;;;;;26.80;61.50;;;;;;5076330;28;19947;-75
2022/08/27 13:28:06;;;;;;;;;;;26.90;57.80;;;;;;5074050;28;19912;-76
2022/08/27 13:30:33;;;;;;;;;;;26.90;59.40;;;;;;5093486;28;19943;-74
2022/08/27 13:33:00;;;;;;;;;;;26.80;58.70;;;;;;5083490;28;20053;-76
2022/08/27 13:35:25;;;;;;;;;;;26.80;57.20;;;;;;5075021;28;19919;-78
2022/08/27 13:37:52;;;;;;;;;;;26.80;57.10;;;;;;5074938;28;19995;-76
2022/08/27 13:40:23;;;;;;;;;;;26.80;55.90;;;;;;5074853;28;19908;-74
2022/08/27 13:42:49;;;;;;;;;;;26.60;59.40;;;;;;5074813;28;19978;-68
2022/08/27 13:45:16;;;;;;;;;;;26.50;60.20;;;;;;5073811;28;20372;-75
2022/08/27 13:47:44;;;;;;;;;;;26.20;61.60;;;;;;5073705;28;19908;-71
2022/08/27 13:50:16;;;;;;;;;;;26.00;60.30;;;;;;5073333;28;19913;-71
2022/08/27 13:55:26;;;;;;;;;;;25.90;59.00;;;;;;5073887;28;19918;-71
2022/08/27 13:57:52;;;;;;;;;;;26.00;57.60;;;;;;5073544;28;20346;-72
2022/08/27 14:00:26;;;;;;;;;;;25.90;57.80;;;;;;5073524;28;19939;-74
2022/08/27 14:02:51;;;;;;;;;;;25.80;57.80;;;;;;5073459;28;19912;-74
2022/08/27 14:05:20;;;;;;;;;;;25.70;58.90;;;;;;5073114;28;19926;-71
2022/08/27 14:07:47;;;;;;;;;;;25.70;59.50;;;;;;5073588;28;19970;-68
2022/08/27 14:10:30;;;;;;;;;;;25.80;62.40;;;;;;5073221;28;19948;-74
2022/08/27 14:12:57;;;;;;;;;;;25.80;65.40;;;;;;5073714;28;19912;-76
2022/08/27 14:15:31;;;;;;;;;;;25.50;66.00;;;;;;5074021;28;19917;-75
2022/08/27 14:17:57;;;;;;;;;;;25.70;66.00;;;;;;5074154;28;20444;-74
2022/08/27 14:20:23;;;;;;;;;;;25.90;66.00;;;;;;5091103;28;19912;-77
2022/08/27 14:22:49;;;;;;;;;;;25.80;66.00;;;;;;5073747;28;19920;-73
2022/08/27 14:25:16;;;;;;;;;;;26.00;66.50;;;;;;5074023;28;19939;-73
2022/08/27 14:27:42;;;;;;;;;;;26.30;59.40;;;;;;5074022;28;19917;-71
2022/08/27 14:30:10;;;;;;;;;;;26.50;56.70;;;;;;5082262;28;19916;-75
2022/08/27 14:32:36;;;;;;;;;;;26.80;61.40;;;;;;5094983;28;19908;-68
2022/08/27 14:35:02;;;;;;;;;;;27.00;59.80;;;;;;5075181;28;19913;-68
2022/08/27 14:37:28;;;;;;;;;;;27.20;59.30;;;;;;5074660;28;19932;-64